Time;durP1;ratioP1;P1;durP2;ratioP2;P2;SDS_P1;SDS_P2;PMS_P1;PMS_P2;Temp;Humidity;BMP_temperature;BMP_pressure;BME280_temperature;BME280_humidity;BME280_pressure;Samples;Min_cycle;Max_cycle;Signal;HPM_P1;HPM_P2
2020/12/09 00:01:29;;;;;;;54.80;22.00;;;2.80;95.40;;;;;;5022724;28;20432;-74
2020/12/09 00:03:57;;;;;;;54.22;23.33;;;2.80;95.40;;;;;;5029885;28;20677;-75
2020/12/09 00:06:24;;;;;;;59.78;25.13;;;2.90;95.60;;;;;;5023081;28;20181;-76
2020/12/09 00:08:50;;;;;;;71.10;25.50;;;2.90;95.50;;;;;;5031040;28;20185;-73
2020/12/09 00:11:16;;;;;;;63.13;24.55;;;2.90;95.40;;;;;;5033059;28;20220;-75
2020/12/09 00:13:42;;;;;;;55.00;22.90;;;2.90;95.30;;;;;;5033079;28;20185;-75
2020/12/09 00:16:07;;;;;;;72.60;25.27;;;2.90;95.30;;;;;;5032237;28;20203;-77
2020/12/09 00:18:33;;;;;;;68.77;24.07;;;3.00;95.40;;;;;;5031903;28;20973;-73
2020/12/09 00:20:59;;;;;;;58.07;23.93;;;3.00;95.50;;;;;;5033185;28;20227;-73
2020/12/09 00:23:25;;;;;;;62.40;24.47;;;3.10;95.30;;;;;;5035013;28;20621;-75
2020/12/09 00:25:50;;;;;;;62.87;24.23;;;3.10;94.70;;;;;;5035242;28;20196;-74
2020/12/09 00:28:16;;;;;;;56.60;23.90;;;3.00;94.70;;;;;;5032182;28;20193;-75
2020/12/09 00:30:42;;;;;;;59.77;23.90;;;3.00;95.00;;;;;;5032277;28;20632;-73
2020/12/09 00:33:10;;;;;;;70.00;25.60;;;2.90;95.00;;;;;;5029851;28;20192;-75
2020/12/09 00:35:36;;;;;;;62.92;24.35;;;3.00;95.20;;;;;;5022470;28;20178;-75
2020/12/09 00:38:06;;;;;;;68.70;25.63;;;3.00;95.30;;;;;;5020024;28;20209;-74
2020/12/09 00:40:34;;;;;;;66.13;24.67;;;3.10;95.40;;;;;;5037032;28;20197;-74
2020/12/09 00:43:01;;;;;;;65.43;24.27;;;3.10;95.40;;;;;;5025170;28;20204;-74
2020/12/09 00:45:26;;;;;;;67.43;25.33;;;3.10;94.90;;;;;;5037967;28;20185;-74
2020/12/09 00:47:52;;;;;;;71.87;25.30;;;3.10;94.90;;;;;;5040982;28;20193;-75
2020/12/09 00:52:47;;;;;;;63.63;24.33;;;3.10;95.00;;;;;;5016933;28;20205;-74
2020/12/09 00:55:13;;;;;;;71.30;25.90;;;3.10;95.00;;;;;;5031450;28;20187;-75
2020/12/09 00:57:38;;;;;;;61.47;24.00;;;3.10;95.10;;;;;;5019166;28;20188;-73
2020/12/09 01:00:08;;;;;;;62.93;24.90;;;3.00;94.80;;;;;;5018595;28;20213;-74
2020/12/09 01:02:34;;;;;;;65.75;24.75;;;3.00;94.90;;;;;;5025338;28;20614;-72
2020/12/09 01:05:00;;;;;;;63.25;23.83;;;3.00;95.00;;;;;;5023650;28;20185;-73
2020/12/09 01:07:26;;;;;;;58.42;24.45;;;3.00;95.20;;;;;;5012944;28;20724;-75
2020/12/09 01:09:52;;;;;;;67.00;25.83;;;3.00;95.10;;;;;;5055687;28;20220;-76
2020/12/09 01:12:18;;;;;;;65.37;25.03;;;3.00;95.10;;;;;;5031190;28;20989;-75
2020/12/09 01:14:43;;;;;;;66.07;24.73;;;3.00;95.20;;;;;;5029570;28;20185;-75
2020/12/09 01:17:09;;;;;;;67.97;23.70;;;3.00;95.10;;;;;;5029228;28;20562;-75
2020/12/09 01:19:35;;;;;;;61.13;22.80;;;2.90;94.90;;;;;;5030530;28;20212;-73
2020/12/09 01:22:05;;;;;;;65.63;24.20;;;2.90;95.10;;;;;;5027203;28;20481;-75
2020/12/09 01:24:31;;;;;;;62.30;23.85;;;2.90;95.20;;;;;;5032081;28;20185;-74
2020/12/09 01:26:57;;;;;;;62.45;25.00;;;2.90;95.20;;;;;;5026843;28;20186;-75
2020/12/09 01:29:23;;;;;;;68.23;26.53;;;2.90;95.30;;;;;;5020913;28;20211;-74
2020/12/09 01:31:48;;;;;;;60.70;23.80;;;3.00;95.40;;;;;;5019721;28;20305;-76
2020/12/09 01:34:15;;;;;;;65.80;24.87;;;3.00;95.40;;;;;;5026853;28;20771;-75
2020/12/09 01:36:41;;;;;;;62.60;25.50;;;3.00;95.40;;;;;;5027937;28;20181;-72
2020/12/09 01:39:07;;;;;;;61.08;25.15;;;3.00;95.70;;;;;;5027475;28;20232;-76
2020/12/09 01:41:33;;;;;;;61.17;25.00;;;3.00;95.40;;;;;;5030799;28;20551;-74
2020/12/09 01:43:58;;;;;;;60.30;23.33;;;3.00;95.50;;;;;;5028915;28;20322;-72
2020/12/09 01:46:28;;;;;;;65.20;25.20;;;3.00;95.60;;;;;;5027365;28;20540;-75
2020/12/09 01:48:55;;;;;;;66.35;26.42;;;3.10;95.60;;;;;;5020787;28;20312;-75
2020/12/09 01:51:24;;;;;;;60.53;22.90;;;3.10;95.70;;;;;;5025683;28;20201;-73
2020/12/09 01:53:53;;;;;;;64.97;24.48;;;3.10;95.60;;;;;;5017674;28;20187;-72
2020/12/09 01:56:20;;;;;;;64.95;25.40;;;3.10;95.40;;;;;;5028647;28;20177;-73
2020/12/09 01:58:48;;;;;;;72.38;27.08;;;3.10;95.50;;;;;;5023265;28;20713;-73
2020/12/09 02:01:14;;;;;;;63.47;26.02;;;3.10;95.50;;;;;;5021644;28;20286;-73
2020/12/09 02:03:40;;;;;;;65.10;26.97;;;3.00;95.30;;;;;;5027515;28;20232;-73
2020/12/09 02:06:05;;;;;;;64.27;23.97;;;3.00;95.60;;;;;;5028775;28;20192;-73
2020/12/09 02:08:31;;;;;;;62.80;25.40;;;3.00;95.60;;;;;;5027215;28;20184;-74
2020/12/09 02:11:02;;;;;;;56.80;24.10;;;3.00;95.50;;;;;;5030325;28;20278;-73
2020/12/09 02:13:29;;;;;;;62.92;23.83;;;3.10;95.60;;;;;;5030220;28;20490;-74
2020/12/09 02:15:55;;;;;;;64.18;25.40;;;3.00;95.50;;;;;;5030232;28;20184;-73
2020/12/09 02:18:21;;;;;;;80.55;28.88;;;3.10;95.50;;;;;;5029309;28;20235;-74
2020/12/09 02:20:47;;;;;;;79.73;26.10;;;3.00;95.30;;;;;;5030520;28;20205;-73
2020/12/09 02:23:13;;;;;;;69.63;26.53;;;3.00;95.40;;;;;;5029207;28;20471;-73
2020/12/09 02:25:39;;;;;;;69.47;26.50;;;3.00;95.30;;;;;;5029773;28;20935;-74
2020/12/09 02:28:05;;;;;;;64.83;25.80;;;3.00;95.40;;;;;;5031194;28;20518;-74
2020/12/09 02:30:31;;;;;;;65.40;24.67;;;3.10;95.50;;;;;;5045372;28;20236;-76
2020/12/09 02:32:56;;;;;;;73.63;27.73;;;3.10;95.40;;;;;;5040890;28;20782;-73
2020/12/09 02:35:23;;;;;;;71.97;27.40;;;3.10;95.40;;;;;;5029660;28;21089;-74
2020/12/09 02:37:49;;;;;;;64.82;25.88;;;3.10;95.40;;;;;;5030125;28;20185;-75
2020/12/09 02:40:15;;;;;;;65.75;25.20;;;3.20;95.60;;;;;;5030131;28;20201;-75
2020/12/09 02:42:41;;;;;;;68.43;26.35;;;3.20;95.50;;;;;;5030048;28;20331;-73
2020/12/09 02:45:07;;;;;;;66.07;25.80;;;3.30;95.40;;;;;;5030107;28;20606;-74
2020/12/09 02:47:32;;;;;;;66.73;24.10;;;3.30;95.20;;;;;;5029944;28;20185;-74
2020/12/09 02:49:59;;;;;;;66.53;25.80;;;3.30;95.30;;;;;;5029892;28;20827;-73
2020/12/09 02:52:25;;;;;;;67.70;23.95;;;3.30;95.20;;;;;;5029993;28;20211;-73
2020/12/09 02:54:51;;;;;;;61.20;26.80;;;3.30;95.30;;;;;;5029558;28;20193;-73
2020/12/09 02:57:16;;;;;;;65.03;24.80;;;3.20;95.40;;;;;;5030761;28;20180;-76
2020/12/09 02:59:42;;;;;;;62.50;24.40;;;3.30;95.60;;;;;;5023109;28;20208;-73
2020/12/09 03:02:08;;;;;;;70.17;26.80;;;3.30;95.50;;;;;;5019090;28;20665;-73
2020/12/09 03:04:33;;;;;;;66.77;25.73;;;3.20;95.30;;;;;;5025527;28;20608;-75
2020/12/09 03:06:59;;;;;;;69.50;24.00;;;3.20;95.30;;;;;;5026675;28;20246;-74
2020/12/09 03:09:25;;;;;;;69.37;25.20;;;3.20;95.40;;;;;;5021334;28;20215;-74
2020/12/09 03:11:51;;;;;;;67.00;26.50;;;3.30;95.40;;;;;;5033779;28;20299;-73
2020/12/09 03:14:16;;;;;;;69.10;27.00;;;3.30;95.30;;;;;;5035474;28;20213;-73
2020/12/09 03:16:42;;;;;;;68.00;25.87;;;3.30;95.30;;;;;;5035096;28;20223;-73
2020/12/09 03:19:07;;;;;;;65.33;26.97;;;3.30;95.20;;;;;;5034635;28;20189;-73
2020/12/09 03:21:33;;;;;;;62.00;25.00;;;3.20;95.10;;;;;;5035095;28;20242;-74
2020/12/09 03:23:59;;;;;;;70.53;26.77;;;3.20;95.30;;;;;;5035242;28;20212;-75
2020/12/09 03:26:26;;;;;;;65.03;25.83;;;3.30;95.30;;;;;;5035410;28;20185;-77
2020/12/09 03:28:55;;;;;;;65.95;26.48;;;3.30;95.30;;;;;;5035526;28;20467;-75
2020/12/09 03:31:21;;;;;;;57.42;24.10;;;3.30;95.40;;;;;;5034433;28;20213;-73
2020/12/09 03:33:47;;;;;;;67.67;23.50;;;3.30;95.30;;;;;;5035316;28;20534;-74
2020/12/09 03:36:13;;;;;;;51.65;23.55;;;3.40;95.30;;;;;;5036181;28;20183;-75
2020/12/09 03:38:39;;;;;;;67.93;26.37;;;3.40;95.10;;;;;;5040102;28;20249;-74
2020/12/09 03:41:04;;;;;;;76.50;28.50;;;3.50;95.10;;;;;;5030464;28;20453;-74
2020/12/09 03:43:30;;;;;;;69.27;27.20;;;3.40;95.00;;;;;;5042935;28;20697;-75
2020/12/09 03:45:56;;;;;;;72.13;28.65;;;3.40;94.90;;;;;;5044142;28;20193;-74
2020/12/09 03:48:22;;;;;;;67.90;27.93;;;3.40;94.90;;;;;;5040917;28;20195;-74
2020/12/09 03:50:48;;;;;;;61.53;25.60;;;3.40;94.90;;;;;;5041893;28;20214;-74
2020/12/09 03:53:14;;;;;;;71.07;27.43;;;3.40;95.10;;;;;;5044000;28;20447;-73
2020/12/09 03:55:40;;;;;;;58.40;26.77;;;3.40;95.20;;;;;;5046013;28;20437;-73
2020/12/09 03:58:05;;;;;;;73.13;27.53;;;3.40;95.40;;;;;;5043985;28;21321;-72
2020/12/09 04:00:31;;;;;;;61.73;25.10;;;3.40;95.50;;;;;;5042870;28;20443;-72
2020/12/09 04:02:57;;;;;;;70.90;28.30;;;3.40;95.60;;;;;;5034265;28;20254;-74
2020/12/09 04:05:24;;;;;;;68.27;27.67;;;3.40;95.50;;;;;;5034056;28;20232;-73
2020/12/09 04:07:50;;;;;;;68.15;26.35;;;3.30;95.50;;;;;;5035250;28;20432;-72
2020/12/09 04:10:16;;;;;;;69.57;26.50;;;3.20;95.90;;;;;;5036805;28;20231;-75
2020/12/09 04:12:42;;;;;;;75.00;28.25;;;3.10;96.40;;;;;;5036337;28;20181;-75
2020/12/09 04:15:08;;;;;;;69.50;27.70;;;3.10;96.60;;;;;;5035733;28;20188;-75
2020/12/09 04:17:34;;;;;;;74.70;28.15;;;3.10;96.90;;;;;;5035629;28;20420;-74
2020/12/09 04:19:59;;;;;;;86.67;30.03;;;3.10;96.90;;;;;;5036510;28;20251;-75
2020/12/09 04:22:25;;;;;;;84.53;29.50;;;3.10;97.20;;;;;;5036247;28;20652;-75
2020/12/09 04:24:51;;;;;;;81.67;28.37;;;3.00;97.20;;;;;;5035645;28;20192;-74
2020/12/09 04:27:17;;;;;;;84.47;31.40;;;3.10;97.50;;;;;;5036802;28;20181;-75
2020/12/09 04:29:42;;;;;;;77.83;30.10;;;3.10;97.60;;;;;;5037435;28;20206;-76
2020/12/09 04:32:08;;;;;;;74.20;29.47;;;3.00;97.60;;;;;;5036922;28;20688;-74
2020/12/09 04:34:34;;;;;;;74.28;29.98;;;3.00;97.70;;;;;;5032878;28;20422;-73
2020/12/09 04:37:01;;;;;;;79.63;28.27;;;3.00;97.80;;;;;;5033248;28;20189;-77
2020/12/09 04:39:27;;;;;;;74.25;28.65;;;2.90;98.00;;;;;;5031420;28;20546;-73
2020/12/09 04:41:54;;;;;;;78.28;29.17;;;3.00;98.10;;;;;;5033717;28;20220;-72
2020/12/09 04:44:19;;;;;;;69.88;29.85;;;3.00;98.40;;;;;;5033216;28;20228;-74
2020/12/09 04:46:50;;;;;;;72.97;28.50;;;3.10;98.60;;;;;;5033604;28;20561;-74
2020/12/09 04:49:21;;;;;;;70.50;28.90;;;3.20;98.60;;;;;;5031968;28;20459;-73
2020/12/09 04:51:59;;;;;;;73.25;27.23;;;3.20;98.30;;;;;;5032043;28;20698;-72
2020/12/09 04:54:38;;;;;;;82.30;30.17;;;3.10;98.00;;;;;;5028865;28;20185;-73
2020/12/09 04:57:25;;;;;;;71.03;26.35;;;3.10;97.70;;;;;;5031958;28;20181;-74
2020/12/09 05:00:00;;;;;;;73.63;28.40;;;3.10;97.80;;;;;;5030472;28;20201;-76
2020/12/09 05:02:41;;;;;;;71.30;27.33;;;3.10;97.90;;;;;;5032053;28;20220;-73
2020/12/09 05:05:10;;;;;;;67.03;26.50;;;3.00;97.90;;;;;;5031123;28;20200;-73
2020/12/09 05:07:37;;;;;;;76.47;29.83;;;3.10;97.90;;;;;;5032675;28;20181;-73
2020/12/09 05:10:06;;;;;;;70.93;26.40;;;3.10;98.00;;;;;;5029385;28;20211;-73
2020/12/09 05:12:47;;;;;;;83.80;28.50;;;3.10;98.20;;;;;;5031405;28;20209;-74
2020/12/09 05:15:19;;;;;;;79.53;30.88;;;3.10;98.30;;;;;;5016670;28;20181;-73
2020/12/09 05:18:04;;;;;;;78.72;28.77;;;3.20;98.50;;;;;;5032583;28;20288;-71
2020/12/09 05:20:34;;;;;;;76.20;28.90;;;3.20;98.50;;;;;;5019682;28;20217;-73
2020/12/09 05:23:02;;;;;;;72.57;28.77;;;3.20;98.60;;;;;;5032976;28;20177;-71
2020/12/09 05:25:29;;;;;;;62.30;26.73;;;3.20;98.50;;;;;;5022618;28;20190;-73
2020/12/09 05:27:56;;;;;;;69.72;26.35;;;3.20;98.50;;;;;;5024743;28;20189;-71
2020/12/09 05:30:41;;;;;;;63.03;26.33;;;3.20;98.40;;;;;;5030796;28;20205;-74
2020/12/09 05:33:13;;;;;;;64.43;26.85;;;3.20;98.20;;;;;;5030849;28;20212;-72
2020/12/09 05:35:41;;;;;;;72.57;29.48;;;3.20;98.00;;;;;;5018100;28;20194;-73
2020/12/09 05:38:15;;;;;;;66.60;28.15;;;3.10;97.90;;;;;;5027461;28;20189;-73
2020/12/09 05:40:42;;;;;;;70.50;26.40;;;3.20;98.00;;;;;;5030403;28;20209;-74
2020/12/09 05:43:09;;;;;;;73.85;26.85;;;3.20;97.80;;;;;;5029090;28;20205;-73
2020/12/09 05:45:35;;;;;;;69.43;28.20;;;3.30;97.70;;;;;;5030080;28;20189;-72
2020/12/09 05:48:15;;;;;;;66.73;26.70;;;3.20;97.80;;;;;;5031201;28;20588;-72
2020/12/09 05:50:51;;;;;;;65.88;25.85;;;3.20;97.90;;;;;;5030336;28;21004;-74
2020/12/09 05:53:25;;;;;;;57.22;24.40;;;3.30;98.00;;;;;;5033824;28;20196;-72
2020/12/09 05:55:54;;;;;;;57.03;23.77;;;3.30;97.90;;;;;;5036076;28;20209;-72
2020/12/09 05:58:28;;;;;;;57.08;24.20;;;3.20;97.70;;;;;;5031896;28;20513;-74
2020/12/09 06:01:10;;;;;;;64.80;25.55;;;3.20;97.70;;;;;;5033019;28;20201;-74
2020/12/09 06:03:42;;;;;;;66.80;27.02;;;3.10;97.80;;;;;;5031652;28;20185;-72
2020/12/09 06:06:12;;;;;;;61.40;24.00;;;3.20;97.90;;;;;;5032014;28;20189;-72
2020/12/09 06:08:42;;;;;;;66.32;26.08;;;3.20;98.00;;;;;;5030844;28;20184;-73
2020/12/09 06:11:09;;;;;;;55.80;23.35;;;3.20;98.10;;;;;;5030440;28;20288;-73
2020/12/09 06:13:35;;;;;;;61.65;23.40;;;3.20;98.00;;;;;;5031692;28;20651;-72
2020/12/09 06:16:03;;;;;;;57.05;24.80;;;3.10;97.80;;;;;;5017632;28;20221;-74
2020/12/09 06:18:30;;;;;;;60.83;24.80;;;3.10;97.70;;;;;;5030590;28;20627;-74
2020/12/09 06:20:57;;;;;;;59.53;25.88;;;3.00;97.60;;;;;;5031370;28;20237;-74
2020/12/09 06:23:26;;;;;;;59.17;23.20;;;3.00;97.90;;;;;;5030886;28;20617;-74
2020/12/09 06:25:52;;;;;;;54.30;22.77;;;3.00;98.00;;;;;;5028349;28;20193;-74
2020/12/09 06:28:22;;;;;;;59.97;21.60;;;3.00;98.10;;;;;;5030453;28;20185;-73
2020/12/09 06:30:50;;;;;;;58.67;23.25;;;2.90;98.20;;;;;;5031179;28;20282;-73
2020/12/09 06:33:36;;;;;;;56.33;23.60;;;3.00;98.30;;;;;;5032760;28;20192;-72
2020/12/09 06:36:13;;;;;;;61.15;22.63;;;3.00;98.40;;;;;;5031133;28;20185;-74
2020/12/09 06:38:39;;;;;;;57.00;22.23;;;3.00;98.30;;;;;;5037862;28;20189;-72
2020/12/09 06:41:04;;;;;;;62.80;21.88;;;3.00;98.30;;;;;;5040094;28;20918;-71
2020/12/09 06:43:31;;;;;;;67.43;27.30;;;3.00;98.30;;;;;;5034826;28;20232;-74
2020/12/09 06:45:56;;;;;;;60.35;24.48;;;3.00;98.40;;;;;;5033674;28;20886;-73
2020/12/09 06:48:24;;;;;;;57.63;23.27;;;3.10;98.50;;;;;;5033848;28;20193;-74
2020/12/09 06:50:51;;;;;;;58.05;22.27;;;3.10;98.80;;;;;;5033805;28;20213;-73
2020/12/09 06:53:23;;;;;;;67.00;25.83;;;3.10;98.70;;;;;;5032332;28;20831;-74
2020/12/09 06:56:11;;;;;;;56.80;23.73;;;3.10;98.70;;;;;;5033064;28;20189;-74
2020/12/09 06:58:37;;;;;;;58.33;23.70;;;3.10;98.80;;;;;;5030211;28;20186;-72
2020/12/09 07:01:05;;;;;;;57.43;23.30;;;3.20;98.80;;;;;;5024740;28;20216;-73
2020/12/09 07:03:39;;;;;;;66.13;25.42;;;3.20;98.60;;;;;;5021691;28;20192;-72
2020/12/09 07:06:19;;;;;;;60.38;23.42;;;3.20;98.50;;;;;;5033341;28;20196;-73
2020/12/09 07:08:46;;;;;;;63.72;24.55;;;3.20;98.40;;;;;;5025265;28;20195;-74
2020/12/09 07:11:12;;;;;;;62.53;25.65;;;3.20;98.40;;;;;;5035421;28;20237;-74
2020/12/09 07:13:38;;;;;;;49.63;23.37;;;3.20;98.40;;;;;;5033832;28;20209;-75
2020/12/09 07:16:05;;;;;;;54.27;24.63;;;3.10;98.40;;;;;;5033690;28;20181;-73
2020/12/09 07:18:32;;;;;;;52.08;23.35;;;3.20;98.40;;;;;;5029848;28;20323;-74
2020/12/09 07:20:58;;;;;;;57.22;22.90;;;3.20;98.20;;;;;;5032792;28;20213;-75
2020/12/09 07:23:24;;;;;;;64.15;25.40;;;3.30;98.20;;;;;;5033305;28;20545;-73
2020/12/09 07:25:54;;;;;;;59.37;25.00;;;3.20;98.00;;;;;;5030847;28;20196;-71
2020/12/09 07:28:20;;;;;;;65.70;27.00;;;3.20;97.90;;;;;;5033391;28;20212;-72
2020/12/09 07:30:46;;;;;;;62.50;24.53;;;3.20;97.90;;;;;;5025322;28;20241;-73
2020/12/09 07:33:16;;;;;;;66.38;27.17;;;3.20;98.00;;;;;;5058422;28;20252;-73
2020/12/09 07:35:43;;;;;;;69.82;27.00;;;3.20;97.80;;;;;;5028333;28;20254;-73
2020/12/09 07:38:09;;;;;;;60.95;25.13;;;3.20;97.90;;;;;;5024646;28;20678;-74
2020/12/09 07:40:35;;;;;;;61.93;24.50;;;3.20;97.90;;;;;;5022402;28;20216;-73
2020/12/09 07:43:07;;;;;;;73.13;26.40;;;3.20;97.80;;;;;;5016903;28;20821;-73
2020/12/09 07:45:35;;;;;;;71.55;27.80;;;3.20;97.80;;;;;;5025949;28;20539;-71
2020/12/09 07:48:16;;;;;;;66.05;25.98;;;3.20;97.80;;;;;;5014425;28;20178;-74
2020/12/09 07:50:49;;;;;;;65.55;26.10;;;3.30;98.00;;;;;;5025776;28;20283;-71
2020/12/09 07:53:15;;;;;;;63.80;25.00;;;3.30;97.90;;;;;;5029877;28;20276;-73
2020/12/09 07:55:41;;;;;;;60.43;24.33;;;3.30;98.00;;;;;;5027311;28;20264;-73
2020/12/09 07:58:09;;;;;;;59.42;25.95;;;3.30;98.10;;;;;;5021667;28;20277;-73
2020/12/09 08:00:37;;;;;;;65.63;26.17;;;3.30;98.10;;;;;;5025838;28;20228;-74
2020/12/09 08:03:03;;;;;;;63.35;25.92;;;3.40;98.10;;;;;;5025850;28;20656;-75
2020/12/09 08:05:37;;;;;;;69.18;25.58;;;3.40;98.00;;;;;;5018142;28;20185;-73
2020/12/09 08:08:12;;;;;;;72.00;27.60;;;3.50;98.20;;;;;;5019363;28;20308;-72
2020/12/09 08:10:39;;;;;;;78.05;26.65;;;3.60;98.30;;;;;;5019657;28;20696;-72
2020/12/09 08:13:20;;;;;;;70.90;27.73;;;3.60;98.20;;;;;;5030650;28;20189;-71
2020/12/09 08:16:05;;;;;;;64.70;26.05;;;3.60;97.90;;;;;;5031395;28;20734;-72
2020/12/09 08:18:31;;;;;;;60.78;26.13;;;3.60;97.70;;;;;;5031966;28;20188;-71
2020/12/09 08:20:57;;;;;;;62.53;24.70;;;3.60;97.30;;;;;;5032401;28;20291;-73
2020/12/09 08:23:38;;;;;;;58.80;25.23;;;3.60;97.30;;;;;;5033738;28;20526;-73
2020/12/09 08:26:04;;;;;;;59.72;24.80;;;3.50;97.00;;;;;;5032607;28;20431;-73
2020/12/09 08:28:32;;;;;;;63.20;25.47;;;3.50;96.80;;;;;;5031937;28;20189;-73
2020/12/09 08:30:58;;;;;;;65.00;25.25;;;3.40;96.50;;;;;;5030268;28;20565;-73
2020/12/09 08:33:25;;;;;;;64.10;25.60;;;3.40;96.60;;;;;;5031436;28;20692;-71
2020/12/09 08:35:58;;;;;;;62.85;24.25;;;3.30;96.50;;;;;;5029955;28;20185;-75
2020/12/09 08:38:41;;;;;;;60.38;24.90;;;3.30;96.70;;;;;;5018090;28;20276;-72
2020/12/09 08:41:13;;;;;;;67.05;26.65;;;3.40;96.90;;;;;;5031710;28;20287;-74
2020/12/09 08:43:41;;;;;;;76.13;26.52;;;3.40;97.00;;;;;;5031536;28;20205;-74
2020/12/09 08:46:09;;;;;;;59.28;23.55;;;3.40;97.00;;;;;;5030512;28;20186;-72
2020/12/09 08:48:36;;;;;;;59.95;24.52;;;3.40;96.80;;;;;;5021063;28;20688;-74
2020/12/09 08:51:03;;;;;;;64.00;25.20;;;3.40;96.70;;;;;;5030094;28;20213;-74
2020/12/09 08:53:29;;;;;;;60.83;24.25;;;3.30;96.70;;;;;;5030319;28;20276;-73
2020/12/09 08:55:55;;;;;;;59.63;24.30;;;3.30;96.80;;;;;;5028350;28;20285;-73
2020/12/09 08:58:22;;;;;;;64.72;24.50;;;3.40;96.90;;;;;;5022952;28;20424;-72
2020/12/09 09:00:48;;;;;;;64.38;25.90;;;3.40;96.70;;;;;;5030761;28;20578;-72
2020/12/09 09:03:20;;;;;;;68.15;25.98;;;3.30;96.60;;;;;;5032316;28;20231;-74
2020/12/09 09:05:51;;;;;;;64.38;25.85;;;3.40;96.80;;;;;;5030161;28;20619;-71
2020/12/09 09:08:17;;;;;;;61.40;24.83;;;3.30;96.80;;;;;;5031019;28;20189;-74
2020/12/09 09:10:43;;;;;;;71.80;27.30;;;3.30;96.80;;;;;;5030562;28;20204;-72
2020/12/09 09:13:10;;;;;;;70.22;26.58;;;3.30;97.20;;;;;;5031438;28;20193;-74
2020/12/09 09:15:37;;;;;;;66.97;27.52;;;3.30;97.20;;;;;;5030335;28;20185;-72
2020/12/09 09:18:03;;;;;;;70.65;28.23;;;3.30;97.30;;;;;;5033793;28;20185;-73
2020/12/09 09:20:29;;;;;;;65.88;27.27;;;3.40;97.50;;;;;;5034107;28;20201;-73
2020/12/09 09:22:55;;;;;;;66.70;26.65;;;3.50;97.40;;;;;;5025030;28;20507;-72
2020/12/09 09:25:21;;;;;;;67.75;29.20;;;3.40;96.80;;;;;;5036112;28;20628;-73
2020/12/09 09:27:48;;;;;;;69.50;28.20;;;3.40;97.20;;;;;;5036618;28;20178;-71
2020/12/09 09:30:13;;;;;;;68.47;26.95;;;3.40;97.20;;;;;;5038890;28;20451;-74
2020/12/09 09:32:39;;;;;;;66.60;25.97;;;3.20;97.20;;;;;;5032295;28;20660;-74
2020/12/09 09:35:05;;;;;;;68.83;26.50;;;3.20;97.50;;;;;;5029226;28;20181;-74
2020/12/09 09:37:31;;;;;;;71.83;27.23;;;3.20;97.50;;;;;;5028633;28;20564;-73
2020/12/09 09:39:57;;;;;;;71.72;28.30;;;3.20;97.70;;;;;;5030169;28;20479;-73
2020/12/09 09:42:22;;;;;;;76.23;29.40;;;3.20;97.80;;;;;;5030545;28;20216;-74
2020/12/09 09:44:49;;;;;;;72.07;28.00;;;3.30;97.80;;;;;;5029831;28;20224;-73
2020/12/09 09:47:15;;;;;;;69.93;26.73;;;3.30;97.80;;;;;;5016244;28;20222;-72
2020/12/09 09:49:41;;;;;;;68.07;27.67;;;3.30;98.00;;;;;;5018215;28;20239;-73
2020/12/09 09:52:07;;;;;;;74.70;28.63;;;3.40;98.10;;;;;;5029645;28;20323;-72
2020/12/09 09:54:33;;;;;;;71.32;28.85;;;3.40;97.90;;;;;;5029495;28;20173;-73
2020/12/09 09:56:59;;;;;;;65.22;28.02;;;3.30;97.70;;;;;;5030091;28;20177;-72
2020/12/09 09:59:25;;;;;;;73.37;29.40;;;3.30;97.90;;;;;;5029069;28;20209;-75
2020/12/09 10:01:54;;;;;;;76.43;28.60;;;3.40;98.00;;;;;;5029729;28;20546;-74
2020/12/09 10:04:20;;;;;;;75.68;28.63;;;3.40;97.90;;;;;;5032218;28;20186;-71
2020/12/09 10:06:47;;;;;;;72.07;25.92;;;3.30;97.80;;;;;;5033341;28;20182;-72
2020/12/09 10:09:13;;;;;;;79.50;28.83;;;3.40;98.00;;;;;;5025173;28;20182;-74
2020/12/09 10:11:40;;;;;;;72.00;30.50;;;3.40;98.00;;;;;;5027612;28;20217;-72
2020/12/09 10:14:07;;;;;;;70.97;26.88;;;3.50;98.10;;;;;;5031121;28;20196;-74
2020/12/09 10:16:33;;;;;;;62.67;25.63;;;3.40;98.10;;;;;;5031272;28;20189;-74
2020/12/09 10:19:02;;;;;;;66.10;26.40;;;3.50;98.00;;;;;;5033012;28;20189;-74
2020/12/09 10:21:30;;;;;;;78.75;28.90;;;3.50;98.00;;;;;;5030020;28;20509;-72
2020/12/09 10:23:57;;;;;;;67.90;27.70;;;3.60;97.90;;;;;;5030079;28;20263;-73
2020/12/09 10:26:36;;;;;;;69.50;26.13;;;3.50;97.50;;;;;;5030416;28;20208;-72
2020/12/09 10:29:07;;;;;;;72.75;27.10;;;3.50;97.40;;;;;;5030700;28;20712;-73
2020/12/09 10:31:40;;;;;;;66.90;25.95;;;3.40;97.30;;;;;;5030618;28;20205;-74
2020/12/09 10:34:08;;;;;;;65.80;26.90;;;3.40;97.40;;;;;;5030056;28;20185;-74
2020/12/09 10:36:38;;;;;;;84.60;29.40;;;3.40;97.60;;;;;;5029912;28;20177;-74
2020/12/09 10:39:07;;;;;;;62.17;28.38;;;3.40;97.80;;;;;;5029951;28;20247;-72
2020/12/09 10:41:40;;;;;;;74.38;28.63;;;3.50;97.90;;;;;;5029891;28;20192;-72
2020/12/09 10:44:06;;;;;;;63.20;26.58;;;3.60;98.00;;;;;;5028049;28;21090;-72
2020/12/09 10:46:34;;;;;;;67.00;26.70;;;3.50;97.70;;;;;;5031404;28;20189;-73
2020/12/09 10:49:04;;;;;;;59.55;25.42;;;3.60;97.80;;;;;;5015208;28;20186;-71
2020/12/09 10:51:30;;;;;;;68.88;27.17;;;3.70;97.90;;;;;;5029864;28;20233;-72
2020/12/09 10:53:57;;;;;;;60.30;24.52;;;3.70;97.80;;;;;;5018374;28;20548;-73
2020/12/09 10:56:31;;;;;;;58.13;24.58;;;3.70;97.50;;;;;;5025087;28;20800;-73
2020/12/09 10:58:57;;;;;;;69.22;28.55;;;3.70;97.10;;;;;;5025512;28;20177;-73
2020/12/09 11:01:27;;;;;;;72.70;29.58;;;3.50;97.00;;;;;;5011570;28;20186;-72
2020/12/09 11:03:54;;;;;;;68.07;25.23;;;3.60;97.30;;;;;;5027276;28;20200;-73
2020/12/09 11:06:28;;;;;;;66.90;27.17;;;3.60;97.40;;;;;;5020334;28;20198;-73
2020/12/09 11:08:56;;;;;;;65.38;25.55;;;3.60;97.30;;;;;;5026296;28;20564;-73
2020/12/09 11:11:22;;;;;;;79.88;30.83;;;3.50;97.10;;;;;;5018682;28;20303;-72
2020/12/09 11:13:48;;;;;;;71.68;25.85;;;3.50;97.50;;;;;;5021244;28;20186;-72
2020/12/09 11:16:19;;;;;;;66.73;27.40;;;3.60;97.70;;;;;;5021327;28;20237;-74
2020/12/09 11:18:46;;;;;;;60.03;25.45;;;3.60;97.90;;;;;;5028343;28;20432;-72
2020/12/09 11:21:17;;;;;;;68.13;26.33;;;3.50;97.70;;;;;;5030055;28;20606;-72
2020/12/09 11:23:44;;;;;;;65.78;28.75;;;3.50;97.70;;;;;;5030858;28;20204;-71
2020/12/09 11:26:10;;;;;;;70.90;29.35;;;3.50;97.90;;;;;;5032544;28;20220;-72
2020/12/09 11:28:36;;;;;;;68.83;26.67;;;3.50;97.90;;;;;;5031537;28;20225;-71
2020/12/09 11:31:02;;;;;;;68.87;28.27;;;3.60;98.00;;;;;;5031216;28;20672;-72
2020/12/09 11:33:28;;;;;;;68.78;27.08;;;3.60;98.00;;;;;;5033656;28;20954;-72
2020/12/09 11:35:54;;;;;;;57.60;25.40;;;3.50;97.80;;;;;;5031724;28;20191;-72
2020/12/09 11:38:19;;;;;;;69.07;27.88;;;3.40;97.80;;;;;;5033180;28;20188;-73
2020/12/09 11:40:45;;;;;;;68.23;28.57;;;3.50;98.00;;;;;;5031538;28;20209;-72
2020/12/09 11:43:11;;;;;;;74.70;28.57;;;3.40;98.00;;;;;;5032674;28;20200;-73
2020/12/09 11:45:37;;;;;;;76.70;28.53;;;3.40;98.10;;;;;;5033162;28;20272;-74
2020/12/09 11:48:03;;;;;;;62.90;26.70;;;3.50;98.20;;;;;;5032730;28;20195;-73
2020/12/09 11:50:29;;;;;;;73.07;30.23;;;3.40;97.80;;;;;;5032841;28;20291;-72
2020/12/09 11:52:54;;;;;;;73.43;27.40;;;3.50;98.00;;;;;;5030049;28;20729;-73
2020/12/09 11:55:20;;;;;;;66.67;26.00;;;3.60;98.10;;;;;;5031052;28;20185;-74
2020/12/09 11:57:46;;;;;;;66.47;29.00;;;3.50;97.80;;;;;;5032551;28;20196;-72
2020/12/09 12:00:11;;;;;;;68.67;26.20;;;3.50;97.70;;;;;;5028798;28;20280;-73
2020/12/09 12:02:37;;;;;;;61.40;24.37;;;3.40;97.80;;;;;;5033401;28;20552;-72
2020/12/09 12:05:03;;;;;;;64.17;25.50;;;3.30;97.70;;;;;;5032383;28;20192;-73
2020/12/09 12:07:30;;;;;;;72.38;27.15;;;3.30;97.80;;;;;;5032916;28;20628;-71
2020/12/09 12:09:55;;;;;;;76.65;28.83;;;3.30;98.00;;;;;;5036844;28;20209;-74
2020/12/09 12:12:21;;;;;;;82.77;27.83;;;3.40;98.10;;;;;;5038962;28;20227;-74
2020/12/09 12:14:47;;;;;;;71.57;26.40;;;3.50;98.10;;;;;;5039138;28;20655;-73
2020/12/09 12:17:13;;;;;;;69.77;25.90;;;3.60;98.10;;;;;;5039082;28;20181;-74
2020/12/09 12:19:38;;;;;;;72.23;27.67;;;3.50;97.70;;;;;;5039662;28;20397;-72
2020/12/09 12:22:04;;;;;;;72.07;25.93;;;3.50;97.90;;;;;;5031266;28;20447;-74
2020/12/09 12:24:31;;;;;;;62.37;24.20;;;3.60;97.70;;;;;;5030395;28;20280;-75
2020/12/09 12:26:56;;;;;;;75.63;28.58;;;3.50;97.40;;;;;;5030012;28;20185;-73
2020/12/09 12:29:22;;;;;;;74.70;27.70;;;3.50;97.40;;;;;;5031824;28;20213;-74
2020/12/09 12:31:48;;;;;;;74.40;28.20;;;3.50;97.60;;;;;;5031348;28;20216;-75
2020/12/09 12:34:14;;;;;;;65.53;24.43;;;3.50;97.70;;;;;;5031087;28;20182;-75
2020/12/09 12:36:40;;;;;;;64.90;25.80;;;3.50;97.70;;;;;;5031327;28;20891;-75
2020/12/09 12:39:07;;;;;;;73.22;26.25;;;3.50;97.50;;;;;;5031461;28;20185;-75
2020/12/09 12:41:32;;;;;;;74.07;26.17;;;3.50;97.50;;;;;;5031705;28;20192;-74